Aireys Inlet, Australia
Current Conditions -  °F | °C
As of 5:00 PM on Monday 26 Jan 2015 (Local Time) from YMAV Reporting Station
Clear Clear  
Wind Chill: 66°   Ceiling: Unl
Heat Index: 66°   Visibility: 6mi
Dew Point: 46°   Wind: 20mph
Humidity: 49%   Direction: 170°S
Pressure: 30"   Gusts: NA
Location:  38.46°S, 144.11°E
Report Text: YMAV 260600Z AUTO 17017KT 9999 // NCD 19/08 Q1016
Loading
Personal Weather Stations






























Interactive Weather Map New forecast layout! Learn more

10-Day Weather Forecast

Advertisements
Track Severe Weather on mobile